createdAt,value
2022-09-12T00:01:10.350Z,57.83
2022-09-12T00:03:37.541Z,57.80
2022-09-12T00:06:31.917Z,57.74
2022-09-12T00:09:00.503Z,57.82
2022-09-12T00:11:28.375Z,57.90
2022-09-12T00:13:59.932Z,58.04
2022-09-12T00:16:28.022Z,58.04
2022-09-12T00:18:55.676Z,58.01
2022-09-12T00:21:22.647Z,58.15
2022-09-12T00:23:49.986Z,58.09
2022-09-12T00:26:18.243Z,58.13
2022-09-12T00:28:45.173Z,58.24
2022-09-12T00:31:15.042Z,58.47
2022-09-12T00:33:42.507Z,58.60
2022-09-12T00:36:19.675Z,58.63
2022-09-12T00:38:46.924Z,58.83
2022-09-12T00:41:18.277Z,58.85
2022-09-12T00:44:11.258Z,58.84
2022-09-12T00:46:49.071Z,58.94
2022-09-12T00:49:35.673Z,59.01
2022-09-12T00:52:09.079Z,58.97
2022-09-12T00:54:58.762Z,59.14
2022-09-12T00:57:29.126Z,59.06
2022-09-12T01:00:18.216Z,59.03
2022-09-12T01:03:09.281Z,59.00
2022-09-12T01:05:37.968Z,59.13
2022-09-12T01:08:05.332Z,59.06
2022-09-12T01:10:33.274Z,59.15
2022-09-12T01:13:00.357Z,58.92
2022-09-12T01:15:27.306Z,59.07
2022-09-12T01:18:05.322Z,58.92
2022-09-12T01:20:39.142Z,59.06
2022-09-12T01:23:36.185Z,58.97
2022-09-12T01:26:15.217Z,59.00
2022-09-12T01:28:51.022Z,59.05
2022-09-12T01:31:36.160Z,59.03
2022-09-12T01:34:21.953Z,58.86
2022-09-12T01:36:56.691Z,58.95
2022-09-12T01:39:32.646Z,58.88
2022-09-12T01:42:07.078Z,58.89
2022-09-12T01:45:05.059Z,58.87
2022-09-12T01:47:40.371Z,58.96
2022-09-12T01:50:19.132Z,58.95
2022-09-12T01:52:50.381Z,58.85
2022-09-12T01:55:24.202Z,58.89
2022-09-12T01:57:57.697Z,59.04
2022-09-12T02:00:25.161Z,58.91
2022-09-12T02:03:02.781Z,58.81
2022-09-12T02:06:04.014Z,58.82
2022-09-12T02:08:39.584Z,58.90
2022-09-12T02:11:08.500Z,59.04
2022-09-12T02:13:38.388Z,58.88
2022-09-12T02:16:13.143Z,58.98
2022-09-12T02:18:42.140Z,58.96
2022-09-12T02:21:08.957Z,58.97
2022-09-12T02:23:38.666Z,58.87
2022-09-12T02:26:20.256Z,58.84
2022-09-12T02:28:47.722Z,58.86
2022-09-12T02:31:35.148Z,58.83
2022-09-12T02:34:10.724Z,58.83
2022-09-12T02:36:46.862Z,58.94
2022-09-12T02:39:13.708Z,58.90
2022-09-12T02:41:40.657Z,59.03
2022-09-12T02:44:08.117Z,58.96
2022-09-12T02:46:44.280Z,58.97
2022-09-12T02:49:11.223Z,58.89
2022-09-12T02:51:38.170Z,58.82
2022-09-12T02:54:07.682Z,58.96
2022-09-12T02:56:34.526Z,58.92
2022-09-12T02:59:03.367Z,58.95
2022-09-12T03:01:46.273Z,58.84
2022-09-12T03:04:32.645Z,58.97
2022-09-12T03:07:25.495Z,59.07
2022-09-12T03:09:55.719Z,59.06
2022-09-12T03:12:30.120Z,59.09
2022-09-12T03:15:13.700Z,59.08
2022-09-12T03:18:06.023Z,59.11
2022-09-12T03:20:42.092Z,59.09
2022-09-12T03:23:19.589Z,59.09
2022-09-12T03:25:50.143Z,59.14
2022-09-12T03:28:17.595Z,59.17
2022-09-12T03:30:47.153Z,59.08
2022-09-12T03:33:16.248Z,59.07
2022-09-12T03:35:43.794Z,59.13
2022-09-12T03:38:10.632Z,59.07
2022-09-12T03:40:37.810Z,59.05
2022-09-12T03:43:06.127Z,59.22
2022-09-12T03:45:33.062Z,59.16
2022-09-12T03:47:59.975Z,59.04
2022-09-12T03:50:26.926Z,59.19
2022-09-12T03:52:53.773Z,59.32
2022-09-12T03:55:20.825Z,59.28
2022-09-12T03:57:48.296Z,59.07
2022-09-12T04:00:19.715Z,58.94
2022-09-12T04:02:47.239Z,58.96
2022-09-12T04:05:14.667Z,59.03
2022-09-12T04:07:41.385Z,59.08
2022-09-12T04:10:09.650Z,59.11
2022-09-12T04:12:37.286Z,59.10
2022-09-12T04:15:05.215Z,59.09
2022-09-12T04:17:32.061Z,59.17
2022-09-12T04:19:59.633Z,59.29
2022-09-12T04:22:26.904Z,59.27
2022-09-12T04:24:54.265Z,59.25
2022-09-12T04:27:21.426Z,59.45
2022-09-12T04:29:48.795Z,59.36
2022-09-12T04:32:16.163Z,59.46
2022-09-12T04:34:43.031Z,59.64
2022-09-12T04:37:12.018Z,59.69
2022-09-12T04:39:39.425Z,59.60
2022-09-12T04:42:06.436Z,59.72
2022-09-12T04:44:33.398Z,59.92
2022-09-12T04:47:00.761Z,59.91
2022-09-12T04:49:28.126Z,59.84
2022-09-12T04:51:55.698Z,60.02
2022-09-12T04:54:22.548Z,60.09
2022-09-12T04:56:50.018Z,60.24
2022-09-12T04:59:21.073Z,60.13
2022-09-12T05:01:48.688Z,60.26
2022-09-12T05:04:15.915Z,60.16
2022-09-12T05:06:42.824Z,60.27
2022-09-12T05:09:11.876Z,60.35
2022-09-12T05:12:03.110Z,60.41
2022-09-12T05:14:28.680Z,60.72
2022-09-12T05:16:59.930Z,60.58
2022-09-12T05:19:28.088Z,60.42
2022-09-12T05:21:56.459Z,60.20
2022-09-12T05:24:23.338Z,59.93
2022-09-12T05:26:50.303Z,59.80
2022-09-12T05:29:17.059Z,59.75
2022-09-12T05:31:44.530Z,59.77
2022-09-12T05:34:11.611Z,59.52
2022-09-12T05:36:38.959Z,59.57
2022-09-12T05:39:06.438Z,59.55
2022-09-12T05:41:34.313Z,59.32
2022-09-12T05:44:03.575Z,59.20
2022-09-12T05:46:35.683Z,58.63
2022-09-12T05:49:04.087Z,58.49
2022-09-12T05:51:33.583Z,58.30
2022-09-12T05:54:01.350Z,58.31
2022-09-12T05:56:33.630Z,58.30
2022-09-12T05:59:05.541Z,57.99
2022-09-12T06:01:34.579Z,57.47
2022-09-12T06:04:03.683Z,57.04
2022-09-12T06:06:31.815Z,56.95
2022-09-12T06:09:00.313Z,57.01
2022-09-12T06:11:28.976Z,57.09
2022-09-12T06:13:57.718Z,57.10
2022-09-12T06:16:27.957Z,56.99
2022-09-12T06:18:56.575Z,57.02
2022-09-12T06:21:24.288Z,57.17
2022-09-12T06:23:51.746Z,57.24
2022-09-12T06:26:21.622Z,57.27
2022-09-12T06:28:49.022Z,57.04
2022-09-12T06:31:20.989Z,56.40
2022-09-12T06:33:49.691Z,56.37
2022-09-12T06:36:18.418Z,56.16
2022-09-12T06:38:49.296Z,56.19
2022-09-12T06:41:17.050Z,55.54
2022-09-12T06:43:44.527Z,55.04
2022-09-12T06:46:13.421Z,54.56
2022-09-12T06:48:42.107Z,53.86
2022-09-12T06:51:13.772Z,53.68
2022-09-12T06:53:41.548Z,53.53
2022-09-12T06:56:12.181Z,53.54
2022-09-12T06:58:40.071Z,53.74
2022-09-12T07:01:11.323Z,53.41
2022-09-12T07:03:38.870Z,53.21
2022-09-12T07:06:13.506Z,53.43
2022-09-12T07:08:45.703Z,52.43
2022-09-12T07:11:21.372Z,52.62
2022-09-12T07:13:51.166Z,52.05
2022-09-12T07:16:19.922Z,52.07
2022-09-12T07:18:58.373Z,52.52
2022-09-12T07:21:26.446Z,51.66
2022-09-12T07:23:55.444Z,52.18
2022-09-12T07:26:22.502Z,52.68
2022-09-12T07:29:07.827Z,52.61
2022-09-12T07:31:40.364Z,52.30
2022-09-12T07:34:08.029Z,51.35
2022-09-12T07:36:34.976Z,51.64
2022-09-12T07:39:02.029Z,50.67
2022-09-12T07:41:31.328Z,50.21
2022-09-12T07:44:01.877Z,49.15
2022-09-12T07:46:33.645Z,49.63
2022-09-12T07:49:01.276Z,49.84
2022-09-12T07:51:29.275Z,49.95
2022-09-12T07:53:56.711Z,49.75
2022-09-12T07:56:29.911Z,49.22
2022-09-12T07:58:59.214Z,48.22
2022-09-12T08:01:26.837Z,47.82
2022-09-12T08:03:55.647Z,48.20
2022-09-12T08:06:25.914Z,48.12
2022-09-12T08:08:54.077Z,47.26
2022-09-12T08:11:22.660Z,48.00
2022-09-12T08:13:55.324Z,46.91
2022-09-12T08:16:26.277Z,45.84
2022-09-12T08:18:53.545Z,46.28
2022-09-12T08:21:22.658Z,46.60
2022-09-12T08:24:16.218Z,46.08
2022-09-12T08:26:43.475Z,47.33
2022-09-12T08:29:10.939Z,47.80
2022-09-12T08:31:38.347Z,47.53
2022-09-12T08:34:08.831Z,47.19
2022-09-12T08:36:35.985Z,46.96
2022-09-12T08:39:06.394Z,44.16
2022-09-12T08:41:50.251Z,44.60
2022-09-12T08:44:54.074Z,44.33
2022-09-12T08:47:34.847Z,45.03
2022-09-12T08:50:06.814Z,43.87
2022-09-12T08:52:37.657Z,43.87
2022-09-12T08:55:06.817Z,43.87
2022-09-12T08:57:33.643Z,43.10
2022-09-12T09:00:00.677Z,42.49
2022-09-12T09:02:36.577Z,43.08
2022-09-12T09:05:12.574Z,43.30
2022-09-12T09:07:54.982Z,41.75
2022-09-12T09:10:46.918Z,43.14
2022-09-12T09:13:42.783Z,43.15
2022-09-12T09:16:12.922Z,43.55
2022-09-12T09:18:40.533Z,43.50
2022-09-12T09:21:52.230Z,43.52
2022-09-12T09:24:22.132Z,43.94
2022-09-12T09:27:01.180Z,43.97
2022-09-12T09:29:42.768Z,43.80
2022-09-12T09:32:17.721Z,43.31
2022-09-12T09:34:44.756Z,41.84
2022-09-12T09:37:42.641Z,42.17
2022-09-12T09:40:27.808Z,42.99
2022-09-12T09:43:03.768Z,42.61
2022-09-12T09:45:31.024Z,42.62
2022-09-12T09:48:05.556Z,42.18
2022-09-12T09:50:32.918Z,42.13
2022-09-12T09:53:00.353Z,41.53
2022-09-12T09:55:31.116Z,43.16
2022-09-12T09:57:58.882Z,41.99
2022-09-12T10:00:33.990Z,41.35
2022-09-12T10:03:13.434Z,42.90
2022-09-12T10:05:54.433Z,42.44
2022-09-12T10:08:26.702Z,42.53
2022-09-12T10:11:05.831Z,42.94
2022-09-12T10:13:52.987Z,42.23
2022-09-12T10:16:33.204Z,41.39
2022-09-12T10:19:03.118Z,42.00
2022-09-12T10:21:48.084Z,42.52
2022-09-12T10:24:22.789Z,41.77
2022-09-12T10:26:57.077Z,42.01
2022-09-12T10:29:33.250Z,43.00
2022-09-12T10:32:06.620Z,42.87
2022-09-12T10:34:46.352Z,41.90
2022-09-12T10:37:20.075Z,41.72
2022-09-12T10:39:53.533Z,42.69
2022-09-12T10:42:44.696Z,42.16
2022-09-12T10:45:38.975Z,41.51
2022-09-12T10:48:26.819Z,41.97
2022-09-12T10:50:53.913Z,41.27
2022-09-12T10:53:23.351Z,40.39
2022-09-12T10:56:03.684Z,40.85
2022-09-12T10:58:53.860Z,40.85
2022-09-12T11:01:51.843Z,41.30
2022-09-12T11:04:42.445Z,41.20
2022-09-12T11:07:27.928Z,40.67
2022-09-12T11:10:14.340Z,41.44
2022-09-12T11:12:56.994Z,41.15
2022-09-12T11:15:52.592Z,41.43
2022-09-12T11:18:42.753Z,41.37
2022-09-12T11:21:34.687Z,40.71
2022-09-12T11:24:05.933Z,40.96
2022-09-12T11:27:10.593Z,39.99
2022-09-12T11:29:53.281Z,40.08
2022-09-12T11:32:48.263Z,40.41
2022-09-12T11:35:29.572Z,41.15
2022-09-12T11:38:31.542Z,41.68
2022-09-12T11:41:26.649Z,40.76
2022-09-12T11:44:05.850Z,40.33
2022-09-12T11:46:38.052Z,40.79
2022-09-12T11:49:14.317Z,40.78
2022-09-12T11:51:58.268Z,40.83
2022-09-12T11:54:37.404Z,40.79
2022-09-12T11:57:05.175Z,39.77
2022-09-12T11:59:34.693Z,40.20
2022-09-12T12:02:01.575Z,40.72
2022-09-12T12:04:35.598Z,40.85
2022-09-12T12:07:08.230Z,41.26
2022-09-12T12:09:35.692Z,41.45
2022-09-12T12:12:09.542Z,42.09
2022-09-12T12:14:43.535Z,42.42
2022-09-12T12:17:20.227Z,42.42
2022-09-12T12:19:48.279Z,42.60
2022-09-12T12:22:20.758Z,43.13
2022-09-12T12:25:06.552Z,43.36
2022-09-12T12:27:55.006Z,43.49
2022-09-12T12:30:54.129Z,43.57
2022-09-12T12:33:22.016Z,43.91
2022-09-12T12:35:59.662Z,43.88
2022-09-12T12:38:34.623Z,43.42
2022-09-12T12:41:17.215Z,43.15
2022-09-12T12:43:52.360Z,42.51
2022-09-12T12:46:21.481Z,41.84
2022-09-12T12:48:53.452Z,40.77
2022-09-12T12:51:30.210Z,41.02
2022-09-12T12:53:58.679Z,40.90
2022-09-12T12:56:46.145Z,40.87
2022-09-12T12:59:19.437Z,40.57
2022-09-12T13:01:54.235Z,40.40
2022-09-12T13:04:30.439Z,40.09
2022-09-12T13:07:07.881Z,40.08
2022-09-12T13:09:54.751Z,40.32
2022-09-12T13:12:24.794Z,39.19
2022-09-12T13:14:58.693Z,39.37
2022-09-12T13:17:40.171Z,39.29
2022-09-12T13:20:29.565Z,38.70
2022-09-12T13:22:57.722Z,38.85
2022-09-12T13:25:29.170Z,38.38
2022-09-12T13:28:11.496Z,38.50
2022-09-12T13:31:18.329Z,37.79
2022-09-12T13:33:47.919Z,38.43
2022-09-12T13:36:24.740Z,38.63
2022-09-12T13:39:12.991Z,38.23
2022-09-12T13:41:43.316Z,37.57
2022-09-12T13:44:11.392Z,37.70
2022-09-12T13:46:38.907Z,38.12
2022-09-12T13:49:11.732Z,37.87
2022-09-12T13:51:38.987Z,38.30
2022-09-12T13:54:05.831Z,38.42
2022-09-12T13:56:37.492Z,38.23
2022-09-12T13:59:05.515Z,38.76
2022-09-12T14:01:47.213Z,38.98
2022-09-12T14:04:40.727Z,39.23
2022-09-12T14:07:22.330Z,39.37
2022-09-12T14:10:01.551Z,39.38
2022-09-12T14:12:43.654Z,40.03
2022-09-12T14:15:32.541Z,39.74
2022-09-12T14:18:08.740Z,39.94
2022-09-12T14:20:49.456Z,40.58
2022-09-12T14:23:33.708Z,40.80
2022-09-12T14:26:19.589Z,40.27
2022-09-12T14:28:50.130Z,40.45
2022-09-12T14:31:38.796Z,40.80
2022-09-12T14:34:21.818Z,40.78
2022-09-12T14:36:55.493Z,40.62
2022-09-12T14:39:38.349Z,40.11
2022-09-12T14:42:21.557Z,40.14
2022-09-12T14:44:58.387Z,40.02
2022-09-12T14:47:37.572Z,39.93
2022-09-12T14:50:11.125Z,40.50
2022-09-12T14:52:46.821Z,40.80
2022-09-12T14:55:21.245Z,41.31
2022-09-12T14:58:18.809Z,41.20
2022-09-12T15:01:04.696Z,41.18
2022-09-12T15:03:47.262Z,41.00
2022-09-12T15:06:50.202Z,41.22
2022-09-12T15:09:25.860Z,41.13
2022-09-12T15:11:53.211Z,40.94
2022-09-12T15:14:20.876Z,40.92
2022-09-12T15:17:00.730Z,41.18
2022-09-12T15:19:33.734Z,41.37
2022-09-12T15:22:05.909Z,41.18
2022-09-12T15:24:39.928Z,41.37
2022-09-12T15:27:14.763Z,41.56
2022-09-12T15:29:48.269Z,41.38
2022-09-12T15:32:27.201Z,41.65
2022-09-12T15:34:54.669Z,41.88
2022-09-12T15:37:27.659Z,41.96
2022-09-12T15:39:56.613Z,42.20
2022-09-12T15:42:29.453Z,42.31
2022-09-12T15:45:01.798Z,42.47
2022-09-12T15:47:32.664Z,42.54
2022-09-12T15:50:00.092Z,42.47
2022-09-12T15:52:27.371Z,42.60
2022-09-12T15:54:58.621Z,42.67
2022-09-12T15:57:30.773Z,42.63
2022-09-12T16:00:01.317Z,42.64
2022-09-12T16:02:34.413Z,42.86
2022-09-12T16:05:17.335Z,42.68
2022-09-12T16:07:44.992Z,42.68
2022-09-12T16:10:23.777Z,42.70
2022-09-12T16:12:51.476Z,42.78
2022-09-12T16:15:24.928Z,42.80
2022-09-12T16:17:52.368Z,43.25
2022-09-12T16:20:20.641Z,43.31
2022-09-12T16:22:55.973Z,43.33
2022-09-12T16:25:39.715Z,43.44
2022-09-12T16:28:20.715Z,43.50
2022-09-12T16:31:01.408Z,43.68
2022-09-12T16:33:31.196Z,43.83
2022-09-12T16:36:19.957Z,44.06
2022-09-12T16:38:51.727Z,44.25
2022-09-12T16:41:21.920Z,44.32
2022-09-12T16:43:55.676Z,44.48
2022-09-12T16:46:42.100Z,44.54
2022-09-12T16:49:15.175Z,44.71
2022-09-12T16:51:48.525Z,44.66
2022-09-12T16:54:15.953Z,44.76
2022-09-12T16:56:44.531Z,44.97
2022-09-12T16:59:17.729Z,45.16
2022-09-12T17:01:55.919Z,45.25
2022-09-12T17:04:36.729Z,45.34
2022-09-12T17:07:17.042Z,45.33
2022-09-12T17:09:52.144Z,45.41
2022-09-12T17:12:22.478Z,45.45
2022-09-12T17:14:56.447Z,45.65
2022-09-12T17:17:36.794Z,45.82
2022-09-12T17:20:04.862Z,45.79
2022-09-12T17:22:37.231Z,45.91
2022-09-12T17:25:20.873Z,45.87
2022-09-12T17:28:03.906Z,46.03
2022-09-12T17:30:39.158Z,46.21
2022-09-12T17:33:06.009Z,46.18
2022-09-12T17:35:47.917Z,46.32
2022-09-12T17:38:18.113Z,46.29
2022-09-12T17:41:14.814Z,46.35
2022-09-12T17:43:49.256Z,46.49
2022-09-12T17:46:35.196Z,46.53
2022-09-12T17:49:04.846Z,46.57
2022-09-12T17:51:43.903Z,46.75
2022-09-12T17:54:18.994Z,46.86
2022-09-12T17:56:47.403Z,46.94
2022-09-12T17:59:19.533Z,47.07
2022-09-12T18:02:11.367Z,47.28
2022-09-12T18:04:40.908Z,47.20
2022-09-12T18:07:08.735Z,47.42
2022-09-12T18:09:36.603Z,47.46
2022-09-12T18:12:03.769Z,47.39
2022-09-12T18:14:34.099Z,47.52
2022-09-12T18:17:09.148Z,47.61
2022-09-12T18:19:36.011Z,47.68
2022-09-12T18:22:03.584Z,47.80
2022-09-12T18:24:30.535Z,47.69
2022-09-12T18:26:58.316Z,47.91
2022-09-12T18:29:27.976Z,47.79
2022-09-12T18:31:55.899Z,47.98
2022-09-12T18:34:22.741Z,47.94
2022-09-12T18:36:54.943Z,48.02
2022-09-12T18:39:27.928Z,48.02
2022-09-12T18:41:57.641Z,47.99
2022-09-12T18:44:35.963Z,48.21
2022-09-12T18:47:09.571Z,48.37
2022-09-12T18:49:37.550Z,48.51
2022-09-12T18:52:19.077Z,48.64
2022-09-12T18:54:52.731Z,48.89
2022-09-12T18:57:34.962Z,48.96
2022-09-12T19:00:04.082Z,49.14
2022-09-12T19:02:34.152Z,49.07
2022-09-12T19:05:01.339Z,49.27
2022-09-12T19:07:39.273Z,49.21
2022-09-12T19:10:12.388Z,49.36
2022-09-12T19:12:46.895Z,49.70
2022-09-12T19:15:14.268Z,49.49
2022-09-12T19:17:48.182Z,49.48
2022-09-12T19:20:16.574Z,49.58
2022-09-12T19:22:50.293Z,49.45
2022-09-12T19:25:31.624Z,49.42
2022-09-12T19:28:11.155Z,49.48
2022-09-12T19:30:47.372Z,49.62
2022-09-12T19:33:18.041Z,49.62
2022-09-12T19:35:44.792Z,49.68
2022-09-12T19:38:12.668Z,49.67
2022-09-12T19:40:42.183Z,49.73
2022-09-12T19:43:09.346Z,49.91
2022-09-12T19:45:37.424Z,49.88
2022-09-12T19:48:04.282Z,49.75
2022-09-12T19:50:32.870Z,49.70
2022-09-12T19:52:59.718Z,49.63
2022-09-12T19:55:29.845Z,49.63
2022-09-12T19:57:56.699Z,49.80
2022-09-12T20:00:28.133Z,49.72
2022-09-12T20:03:02.289Z,49.78
2022-09-12T20:05:42.548Z,49.81
2022-09-12T20:08:17.928Z,49.59
2022-09-12T20:10:48.635Z,49.68
2022-09-12T20:13:17.500Z,49.69
2022-09-12T20:15:44.418Z,49.65
2022-09-12T20:18:11.752Z,49.85
2022-09-12T20:20:38.599Z,49.65
2022-09-12T20:23:09.848Z,49.57
2022-09-12T20:25:43.358Z,49.60
2022-09-12T20:28:10.208Z,49.71
2022-09-12T20:30:40.638Z,49.47
2022-09-12T20:33:07.480Z,49.61
2022-09-12T20:35:35.781Z,49.67
2022-09-12T20:38:04.155Z,49.64
2022-09-12T20:40:31.719Z,49.75
2022-09-12T20:42:59.181Z,49.76
2022-09-12T20:45:39.367Z,49.71
2022-09-12T20:48:06.194Z,49.67
2022-09-12T20:50:36.740Z,49.80
2022-09-12T20:53:07.884Z,49.92
2022-09-12T20:55:35.347Z,49.99
2022-09-12T20:58:02.088Z,50.19
2022-09-12T21:00:30.780Z,50.28
2022-09-12T21:03:03.977Z,50.37
2022-09-12T21:05:37.814Z,50.31
2022-09-12T21:08:14.890Z,50.38
2022-09-12T21:10:42.758Z,50.39
2022-09-12T21:13:25.273Z,50.31
2022-09-12T21:16:12.971Z,50.54
2022-09-12T21:19:01.183Z,50.29
2022-09-12T21:21:31.500Z,50.37
2022-09-12T21:24:17.089Z,50.36
2022-09-12T21:26:46.286Z,50.28
2022-09-12T21:29:24.097Z,50.37
2022-09-12T21:31:51.664Z,50.61
2022-09-12T21:34:25.583Z,50.54
2022-09-12T21:36:55.712Z,50.62
2022-09-12T21:39:22.487Z,50.45
2022-09-12T21:41:50.126Z,50.49
2022-09-12T21:44:16.976Z,50.52
2022-09-12T21:46:44.064Z,50.52
2022-09-12T21:49:17.884Z,50.61
2022-09-12T21:51:54.526Z,50.63
2022-09-12T21:54:24.653Z,50.53
2022-09-12T21:56:51.686Z,50.62
2022-09-12T21:59:19.788Z,50.71
2022-09-12T22:01:48.008Z,50.85
2022-09-12T22:04:16.861Z,51.09
2022-09-12T22:06:46.813Z,51.22
2022-09-12T22:09:15.386Z,51.49
2022-09-12T22:11:55.720Z,51.56
2022-09-12T22:14:22.502Z,51.82
2022-09-12T22:16:50.787Z,51.68
2022-09-12T22:19:20.289Z,51.73
2022-09-12T22:22:05.794Z,51.63
2022-09-12T22:24:32.745Z,51.52
2022-09-12T22:27:00.827Z,51.66
2022-09-12T22:29:28.184Z,51.63
2022-09-12T22:31:55.754Z,51.85
2022-09-12T22:34:22.603Z,51.90
2022-09-12T22:36:49.558Z,51.95
2022-09-12T22:39:16.920Z,51.84
2022-09-12T22:41:44.183Z,51.93
2022-09-12T22:44:11.333Z,52.08
2022-09-12T22:46:45.591Z,52.12
2022-09-12T22:49:26.635Z,51.96
2022-09-12T22:51:53.999Z,52.06
2022-09-12T22:54:24.735Z,52.16
2022-09-12T22:56:51.583Z,52.06
2022-09-12T22:59:18.435Z,51.97
2022-09-12T23:01:45.286Z,52.27
2022-09-12T23:04:16.337Z,51.98
2022-09-12T23:06:57.311Z,52.02
2022-09-12T23:09:44.647Z,51.94
2022-09-12T23:12:11.498Z,52.11
2022-09-12T23:14:39.164Z,52.09
2022-09-12T23:17:05.915Z,52.20
2022-09-12T23:19:33.583Z,52.24
2022-09-12T23:22:02.493Z,52.27
2022-09-12T23:24:29.335Z,52.31
2022-09-12T23:27:01.304Z,52.40
2022-09-12T23:29:29.280Z,52.77
2022-09-12T23:31:57.048Z,52.69
2022-09-12T23:34:24.407Z,52.72
2022-09-12T23:36:56.585Z,53.03
2022-09-12T23:39:26.612Z,53.02
2022-09-12T23:41:53.664Z,53.20
2022-09-12T23:44:20.522Z,53.04
2022-09-12T23:46:47.872Z,53.26
2022-09-12T23:49:15.130Z,53.52
2022-09-12T23:51:49.060Z,53.40
2022-09-12T23:54:22.674Z,53.65
2022-09-12T23:56:50.023Z,53.63
2022-09-12T23:59:17.484Z,53.98
